Time;durP1;ratioP1;P1;durP2;ratioP2;P2;SDS_P1;SDS_P2;PMS_P1;PMS_P2;Temp;Humidity;BMP_temperature;BMP_pressure;BME280_temperature;BME280_humidity;BME280_pressure;Samples;Min_cycle;Max_cycle;Signal;HPM_P1;HPM_P2
2021/12/18 00:00:43;;;;;;;;;5.00;5.00;;;;;9.60;43.86;101149.81;146597;591;46016;-86
2021/12/18 00:03:39;;;;;;;;;8.00;7.50;;;;;9.60;43.99;101141.16;146597;567;46021;-83
2021/12/18 00:06:31;;;;;;;;;8.75;7.75;;;;;9.60;44.10;101154.09;146598;614;47012;-82
2021/12/18 00:09:25;;;;;;;;;5.25;4.00;;;;;9.64;44.24;101150.88;146598;588;46012;-80
2021/12/18 00:12:17;;;;;;;;;7.00;7.00;;;;;9.63;44.62;101136.16;146598;599;46013;-74
2021/12/18 00:15:11;;;;;;;;;6.25;5.75;;;;;9.61;44.46;101142.94;146592;566;46020;-75
2021/12/18 00:18:03;;;;;;;;;8.25;7.00;;;;;9.59;44.89;101148.00;146597;632;46916;-75
2021/12/18 00:20:57;;;;;;;;;6.25;6.25;;;;;9.59;44.83;101137.63;146599;610;46010;-75
2021/12/18 00:23:50;;;;;;;;;7.00;6.75;;;;;9.60;44.78;101139.44;146599;612;46012;-74
2021/12/18 00:26:42;;;;;;;;;1.75;1.75;;;;;9.57;44.52;101154.81;146597;593;46021;-74
2021/12/18 00:29:33;;;;;;;;;7.00;6.00;;;;;9.57;44.93;101159.97;146596;572;46016;-88
2021/12/18 00:32:26;;;;;;;;;14.25;8.00;;;;;9.55;44.78;101155.50;146601;582;46010;-91
2021/12/18 00:35:18;;;;;;;;;13.75;13.50;;;;;9.57;44.91;101162.56;146597;608;46038;-88
2021/12/18 00:38:12;;;;;;;;;10.00;10.00;;;;;9.55;44.72;101153.78;146598;655;46021;-85
2021/12/18 00:41:15;;;;;;;;;11.00;9.25;;;;;9.55;44.92;101145.13;146596;632;46016;-80
2021/12/18 00:44:08;;;;;;;;;9.00;7.75;;;;;8.44;45.18;100951.09;146589;666;47010;-82
2021/12/18 00:47:00;;;;;;;;;7.50;7.00;;;;;9.50;45.45;101131.91;146598;594;47012;-81
2021/12/18 00:49:53;;;;;;;;;7.75;7.75;;;;;9.44;46.17;101108.25;146596;573;46021;-79
2021/12/18 00:52:47;;;;;;;;;9.00;8.00;;;;;9.33;46.60;101110.16;146595;606;46016;-79
2021/12/18 00:55:39;;;;;;;;;8.00;7.00;;;;;9.29;46.37;101110.78;146596;614;46020;-79
2021/12/18 00:58:31;;;;;;;;;10.50;9.50;;;;;9.24;47.70;101086.28;146597;573;46016;-75
2021/12/18 01:01:26;;;;;;;;;10.00;8.25;;;;;9.18;48.36;101109.19;146597;591;46020;-80
2021/12/18 01:04:19;;;;;;;;;8.75;7.75;;;;;9.08;49.70;101109.44;146598;583;46012;-75
2021/12/18 01:07:11;;;;;;;;;10.50;8.25;;;;;8.98;51.49;101118.28;146596;583;46020;-77
2021/12/18 01:10:24;;;;;;;;;7.00;6.00;;;;;8.85;50.30;101095.94;146596;579;46916;-75
2021/12/18 01:13:24;;;;;;;;;7.25;6.25;;;;;8.77;50.08;101110.06;146590;577;46010;-78
2021/12/18 01:16:21;;;;;;;;;10.00;7.75;;;;;8.72;52.37;101093.34;146597;578;46916;-77
2021/12/18 01:22:47;;;;;;;;;9.00;7.50;;;;;8.56;52.21;101091.44;146596;640;47014;-76
2021/12/18 01:25:40;;;;;;;;;11.00;9.75;;;;;8.45;52.76;101083.00;146600;621;46010;-85
2021/12/18 01:28:32;;;;;;;;;8.25;6.50;;;;;8.37;52.28;101085.84;146598;595;46012;-80
2021/12/18 01:31:24;;;;;;;;;6.25;5.50;;;;;8.33;51.96;101092.50;146599;563;46020;-83
2021/12/18 01:34:16;;;;;;;;;9.00;7.50;;;;;8.34;52.47;101094.28;146593;581;46026;-78
2021/12/18 01:37:10;;;;;;;;;9.25;7.00;;;;;8.34;51.98;101102.94;146598;643;46010;-88
2021/12/18 01:40:02;;;;;;;;;7.25;5.75;;;;;8.39;52.24;101080.03;146598;658;46013;-84
2021/12/18 01:52:32;;;;;;;;;6.00;5.50;;;;;8.36;51.43;101055.66;146596;614;46012;-81
2021/12/18 01:55:29;;;;;;;;;13.50;8.75;;;;;8.35;53.09;101057.34;146598;615;46012;-80
2021/12/18 01:58:24;;;;;;;;;10.75;8.00;;;;;8.34;51.70;101048.66;146601;611;45915;-76
2021/12/18 02:01:18;;;;;;;;;8.25;7.75;;;;;8.32;52.02;101052.88;146599;563;45020;-80
2021/12/18 02:04:10;;;;;;;;;6.25;6.00;;;;;8.29;51.17;101063.00;146596;611;46916;-82
2021/12/18 02:07:03;;;;;;;;;11.25;9.75;;;;;8.28;51.22;101049.97;146596;613;46020;-88
2021/12/18 02:10:08;;;;;;;;;11.50;8.00;;;;;8.27;50.98;101038.75;146593;586;46017;-88
2021/12/18 02:13:19;;;;;;;;;7.25;6.00;;;;;8.28;49.92;101037.94;146593;571;46010;-79
2021/12/18 02:19:50;;;;;;;;;5.75;5.75;;;;;8.29;50.41;101031.09;146597;576;46023;-80
2021/12/18 02:22:42;;;;;;;;;4.50;3.25;;;;;8.27;51.47;101051.66;146598;602;46016;-85
2021/12/18 02:25:36;;;;;;;;;9.00;7.00;;;;;8.26;53.57;101074.81;146602;584;46010;-87
2021/12/18 02:28:28;;;;;;;;;7.25;7.25;;;;;8.16;56.94;101101.75;146599;577;47012;-84
2021/12/18 02:31:21;;;;;;;;;6.75;6.00;;;;;7.95;59.85;101119.25;146594;610;46020;-88
2021/12/18 02:34:23;;;;;;;;;5.25;5.00;;;;;7.79;60.72;101125.06;146598;564;46016;-89
2021/12/18 02:37:16;;;;;;;;;4.00;3.00;;;;;7.65;61.55;101123.22;146601;734;46010;-90
2021/12/18 02:43:20;;;;;;;;;6.50;6.00;;;;;7.57;62.38;101140.75;146591;577;46020;-80
2021/12/18 02:46:19;;;;;;;;;6.00;6.00;;;;;7.58;62.25;101144.22;146596;575;46916;-79
2021/12/18 02:49:16;;;;;;;;;4.50;4.00;;;;;7.59;60.47;101130.53;146598;569;46012;-79
2021/12/18 02:52:09;;;;;;;;;4.25;4.25;;;;;7.56;68.11;101126.03;146599;629;45016;-78
2021/12/18 02:55:01;;;;;;;;;5.00;3.00;;;;;7.58;62.80;101137.38;146597;565;46021;-78
2021/12/18 02:57:54;;;;;;;;;2.00;2.00;;;;;7.58;60.91;101144.22;146595;586;46016;-75
2021/12/18 03:00:46;;;;;;;;;1.00;1.00;;;;;7.53;61.11;101124.94;146597;650;46020;-75
2021/12/18 03:03:41;;;;;;;;;1.25;1.25;;;;;7.52;63.37;101113.72;146596;653;46916;-76
2021/12/18 03:06:38;;;;;;;;;0.00;0.00;;;;;7.52;62.21;101123.16;146599;637;46010;-76
2021/12/18 03:19:00;;;;;;;;;2.00;1.00;;;;;7.51;62.24;101122.25;146596;569;46016;-76
2021/12/18 03:25:58;;;;;;;;;2.00;2.00;;;;;7.68;59.90;101117.38;146597;571;46021;-75
2021/12/18 03:28:50;;;;;;;;;2.00;1.00;;;;;7.70;60.38;101111.53;146600;636;45033;-77
2021/12/18 03:31:42;;;;;;;;;2.00;2.00;;;;;7.73;60.21;101116.00;146596;566;46020;-78
2021/12/18 03:34:34;;;;;;;;;1.00;1.00;;;;;7.79;61.33;101142.25;146597;625;46016;-76
2021/12/18 03:37:26;;;;;;;;;3.00;1.00;;;;;7.80;59.91;101144.91;146598;647;46020;-75
2021/12/18 03:40:21;;;;;;;;;10.50;8.75;;;;;7.79;63.58;101139.66;146599;572;46013;-85
2021/12/18 03:43:14;;;;;;;;;6.50;6.00;;;;;7.74;60.79;101144.50;146591;563;46020;-77
2021/12/18 03:46:06;;;;;;;;;1.00;1.00;;;;;7.70;60.68;101141.59;146597;578;47015;-77
2021/12/18 03:48:58;;;;;;;;;0.00;0.00;;;;;7.67;55.61;101137.12;146600;574;46021;-75
2021/12/18 03:51:50;;;;;;;;;0.75;0.75;;;;;7.59;63.09;101128.84;146596;596;46916;-82
2021/12/18 03:54:43;;;;;;;;;1.00;1.00;;;;;7.45;63.88;101139.00;146597;573;46021;-78
2021/12/18 03:57:35;;;;;;;;;0.75;0.75;;;;;7.32;64.86;101129.47;146597;563;46014;-77
2021/12/18 04:00:27;;;;;;;;;0.75;0.75;;;;;7.22;65.26;101130.50;146597;588;46020;-75
2021/12/18 04:03:19;;;;;;;;;2.25;1.00;;;;;7.20;64.25;101123.47;146600;605;46012;-76
2021/12/18 04:06:12;;;;;;;;;1.00;0.00;;;;;7.14;64.42;101114.50;146596;706;46020;-77
2021/12/18 04:09:04;;;;;;;;;2.75;1.75;;;;;7.10;64.54;101137.38;146593;645;46017;-77
2021/12/18 04:11:56;;;;;;;;;1.00;1.00;;;;;7.07;63.07;101139.72;146587;569;47916;-76
2021/12/18 04:14:49;;;;;;;;;0.75;0.75;;;;;7.04;63.52;101136.94;146595;635;46016;-78
2021/12/18 04:17:41;;;;;;;;;0.50;0.50;;;;;7.05;63.90;101133.59;146598;645;45049;-77
2021/12/18 04:20:34;;;;;;;;;1.00;0.50;;;;;7.07;64.81;101153.56;146600;593;46012;-78
2021/12/18 04:23:26;;;;;;;;;0.25;0.25;;;;;7.11;65.81;101152.09;146599;570;46020;-79
2021/12/18 04:26:19;;;;;;;;;2.00;1.00;;;;;7.11;65.06;101155.56;146597;636;46917;-78
2021/12/18 04:29:11;;;;;;;;;2.75;2.75;;;;;7.08;65.79;101136.38;146596;597;46020;-76
2021/12/18 04:32:04;;;;;;;;;2.00;2.00;;;;;6.99;65.97;101123.72;146597;567;47014;-79
2021/12/18 04:34:56;;;;;;;;;3.50;2.25;;;;;6.90;68.11;101117.91;146599;595;45020;-73
2021/12/18 04:37:48;;;;;;;;;3.00;3.00;;;;;6.80;69.36;101097.41;146595;585;46017;-72
2021/12/18 04:40:42;;;;;;;;;5.25;3.00;;;;;6.71;66.56;101092.50;146586;581;47917;-76
2021/12/18 04:43:35;;;;;;;;;5.25;4.25;;;;;6.65;70.02;101085.22;146597;613;47014;-75
2021/12/18 04:46:27;;;;;;;;;7.75;7.75;;;;;6.58;72.22;101123.31;146599;605;46011;-76
2021/12/18 04:49:20;;;;;;;;;3.50;2.00;;;;;6.56;68.04;101109.41;146599;652;45016;-73
2021/12/18 04:52:12;;;;;;;;;5.00;3.50;;;;;6.60;68.86;101109.72;146595;574;46020;-74
2021/12/18 04:55:05;;;;;;;;;6.00;4.75;;;;;6.62;66.05;101125.31;146597;594;47012;-76
2021/12/18 04:57:57;;;;;;;;;6.75;6.00;;;;;6.64;69.21;101075.69;146596;587;46020;-74
2021/12/18 05:00:49;;;;;;;;;3.00;3.00;;;;;6.65;67.26;101098.09;146600;602;46013;-82
2021/12/18 05:03:42;;;;;;;;;4.00;4.00;;;;;6.72;65.88;101138.97;146598;608;47010;-76
2021/12/18 05:06:36;;;;;;;;;3.25;3.25;;;;;6.76;66.30;101106.62;146597;563;45021;-74
2021/12/18 05:09:29;;;;;;;;;5.75;4.50;;;;;6.76;66.82;101095.38;146592;607;45916;-85
2021/12/18 05:12:21;;;;;;;;;6.00;5.00;;;;;6.78;67.83;101111.87;146596;624;46025;-83
2021/12/18 05:15:13;;;;;;;;;6.00;5.50;;;;;6.82;66.81;101150.88;146597;584;46021;-84
2021/12/18 05:18:05;;;;;;;;;2.00;2.00;;;;;6.84;63.45;101135.50;146597;606;46034;-84
2021/12/18 05:20:58;;;;;;;;;8.00;7.25;;;;;6.88;62.94;101124.63;146596;595;46020;-86
2021/12/18 05:23:50;;;;;;;;;4.75;3.75;;;;;6.91;67.02;101143.78;146599;613;46016;-84
2021/12/18 05:26:42;;;;;;;;;5.00;4.75;;;;;6.96;63.76;101135.50;146594;559;46020;-86
2021/12/18 05:29:34;;;;;;;;;3.00;3.00;;;;;7.01;62.98;101144.44;146595;564;46012;-85
2021/12/18 05:32:26;;;;;;;;;4.00;4.00;;;;;7.04;64.53;101108.56;146595;569;46020;-86
2021/12/18 05:35:19;;;;;;;;;4.50;4.00;;;;;7.04;62.26;101130.12;146593;563;46016;-86
2021/12/18 05:38:11;;;;;;;;;6.00;5.00;;;;;7.07;62.27;101135.50;146590;634;47021;-86
2021/12/18 05:41:03;;;;;;;;;3.00;3.00;;;;;7.12;64.16;101121.22;146597;647;46012;-87
2021/12/18 05:43:56;;;;;;;;;4.25;4.25;;;;;7.12;62.21;101122.91;146601;581;46010;-83
2021/12/18 05:46:49;;;;;;;;;7.00;6.00;;;;;7.15;62.40;101125.72;146600;605;46016;-83
2021/12/18 05:49:41;;;;;;;;;9.50;7.00;;;;;7.15;61.71;101117.97;146598;581;46020;-78
2021/12/18 05:52:33;;;;;;;;;9.00;7.00;;;;;7.13;64.70;101135.00;146596;668;46037;-84
2021/12/18 05:55:26;;;;;;;;;5.50;5.00;;;;;7.13;64.56;101145.34;146596;593;46010;-78
2021/12/18 05:58:18;;;;;;;;;5.50;2.75;;;;;7.08;63.18;101116.66;146596;588;46016;-80
2021/12/18 06:01:11;;;;;;;;;8.00;6.00;;;;;6.97;63.16;101129.56;146599;590;47012;-79
2021/12/18 06:04:03;;;;;;;;;7.25;6.00;;;;;6.87;64.76;101120.25;146596;563;46035;-80
2021/12/18 06:07:04;;;;;;;;;7.75;6.00;;;;;6.90;65.15;101157.47;146591;654;46021;-78
2021/12/18 06:09:56;;;;;;;;;7.00;6.50;;;;;6.89;66.07;101149.63;146599;597;46012;-78
2021/12/18 06:12:48;;;;;;;;;8.75;7.75;;;;;6.81;67.56;101166.22;146599;570;46020;-79
2021/12/18 06:15:40;;;;;;;;;7.75;7.00;;;;;6.73;64.84;101121.84;146598;600;46014;-78
2021/12/18 06:18:33;;;;;;;;;6.50;5.75;;;;;6.68;65.33;101149.84;146597;599;46020;-79
2021/12/18 06:21:25;;;;;;;;;4.00;3.00;;;;;6.70;63.34;101116.47;146595;579;46017;-78
2021/12/18 06:24:17;;;;;;;;;6.25;6.25;;;;;6.79;63.19;101170.34;146599;593;46010;-78
2021/12/18 06:27:09;;;;;;;;;6.00;6.00;;;;;6.89;62.41;101170.25;146600;576;47012;-80
2021/12/18 06:30:02;;;;;;;;;4.75;4.75;;;;;6.99;54.74;101120.25;146600;572;45050;-75
2021/12/18 06:32:54;;;;;;;;;3.50;3.50;;;;;7.13;57.77;101075.69;146595;582;46016;-76
2021/12/18 06:35:46;;;;;;;;;14.00;12.00;;;;;7.23;56.75;101164.94;146591;582;46010;-82
2021/12/18 06:38:39;;;;;;;;;5.75;4.75;;;;;7.31;55.89;101164.69;146598;593;46016;-78
2021/12/18 06:41:31;;;;;;;;;7.25;4.75;;;;;7.40;57.34;101162.78;146598;569;46010;-80
2021/12/18 06:44:23;;;;;;;;;9.00;7.00;;;;;7.45;57.89;101151.91;146597;592;46014;-78
2021/12/18 06:47:16;;;;;;;;;13.75;12.25;;;;;7.50;60.99;101169.47;146599;569;46010;-85
2021/12/18 06:50:10;;;;;;;;;17.25;14.75;;;;;6.37;60.16;100975.81;146593;616;46012;-83
2021/12/18 06:53:02;;;;;;;;;8.50;8.50;;;;;7.43;55.84;101171.53;146598;703;45021;-83
2021/12/18 06:55:55;;;;;;;;;3.25;3.00;;;;;7.50;54.71;101172.06;146595;605;46016;-83
2021/12/18 06:58:47;;;;;;;;;5.75;5.25;;;;;7.59;53.91;101162.37;146597;564;46021;-83
2021/12/18 07:01:40;;;;;;;;;71.75;51.50;;;;;7.68;53.08;101171.56;146597;586;46012;-81
2021/12/18 07:04:32;;;;;;;;;73.00;55.25;;;;;7.75;53.04;101185.00;146591;648;46020;-82
2021/12/18 07:07:24;;;;;;;;;63.75;48.25;;;;;7.84;51.37;101206.28;146591;669;46017;-81
2021/12/18 07:10:18;;;;;;;;;6.50;6.00;;;;;7.92;49.90;101216.28;146591;573;47020;-81
2021/12/18 07:13:10;;;;;;;;;27.75;22.75;;;;;8.02;53.88;101234.19;146598;610;46012;-82
2021/12/18 07:16:02;;;;;;;;;9.00;7.00;;;;;8.02;55.44;101242.84;146598;570;46010;-85
2021/12/18 07:18:54;;;;;;;;;9.75;9.75;;;;;7.91;55.64;101209.28;146598;585;46012;-82
2021/12/18 07:21:47;;;;;;;;;4.50;4.50;;;;;7.83;57.63;101212.25;146595;596;46021;-82
2021/12/18 07:24:39;;;;;;;;;28.25;25.75;;;;;7.81;58.06;101252.53;146595;576;47014;-84
2021/12/18 07:27:31;;;;;;;;;9.25;7.75;;;;;7.68;56.39;101257.63;146597;665;46020;-83
2021/12/18 07:30:23;;;;;;;;;14.00;10.00;;;;;7.54;57.33;101248.94;146597;630;46917;-76
2021/12/18 07:33:16;;;;;;;;;9.00;9.00;;;;;7.41;59.89;101241.06;146590;569;46020;-78
2021/12/18 07:36:08;;;;;;;;;16.25;14.50;;;;;7.37;60.79;101260.59;146596;613;46916;-79
2021/12/18 07:39:01;;;;;;;;;20.00;18.00;;;;;7.34;61.05;101249.16;146598;596;45916;-81
2021/12/18 07:41:53;;;;;;;;;18.25;15.50;;;;;7.34;64.86;101233.69;146595;604;46916;-77
2021/12/18 07:44:46;;;;;;;;;19.25;17.00;;;;;7.32;61.78;101245.56;146598;581;46011;-79
2021/12/18 07:47:38;;;;;;;;;89.33;81.33;;;;;7.33;62.67;101263.75;146598;576;46016;-89
2021/12/18 07:50:30;;;;;;;;;20.25;16.00;;;;;7.31;61.34;101244.66;146600;615;46021;-81
2021/12/18 07:53:24;;;;;;;;;25.25;19.50;;;;;7.36;62.17;101253.66;146595;617;46014;-80
2021/12/18 07:56:16;;;;;;;;;34.00;30.50;;;;;7.41;62.25;101259.12;146598;608;46010;-81
2021/12/18 07:59:09;;;;;;;;;23.25;15.75;;;;;7.40;62.52;101255.66;146597;583;46013;-80
2021/12/18 08:02:01;;;;;;;;;18.25;14.25;;;;;7.41;62.78;101274.59;146590;570;47916;-84
2021/12/18 08:04:53;;;;;;;;;22.00;19.50;;;;;7.42;60.64;101270.38;146595;564;46016;-80
2021/12/18 08:07:46;;;;;;;;;18.00;16.75;;;;;7.39;60.12;101282.25;146597;670;47010;-77
2021/12/18 08:10:38;;;;;;;;;14.50;12.25;;;;;7.37;65.20;101264.84;146596;577;45016;-78
2021/12/18 08:13:31;;;;;;;;;8.75;8.00;;;;;7.33;61.37;101270.59;146599;594;46010;-78
2021/12/18 08:16:23;;;;;;;;;11.50;11.50;;;;;7.31;60.09;101260.16;146600;611;46012;-79
2021/12/18 08:19:15;;;;;;;;;13.50;10.00;;;;;7.36;60.55;101269.12;146597;581;46030;-79
2021/12/18 08:22:08;;;;;;;;;56.75;43.25;;;;;7.44;61.87;101276.53;146590;599;46017;-79
2021/12/18 08:25:01;;;;;;;;;40.00;31.00;;;;;7.43;61.73;101259.25;146597;571;46010;-79
2021/12/18 08:27:55;;;;;;;;;21.75;17.25;;;;;7.37;61.22;101264.84;146595;575;46013;-76
2021/12/18 08:30:47;;;;;;;;;17.00;16.25;;;;;7.29;63.25;101266.91;146592;589;46010;-85
2021/12/18 08:33:39;;;;;;;;;15.25;15.25;;;;;7.25;62.76;101233.91;146592;647;46016;-83
2021/12/18 08:36:32;;;;;;;;;8.50;8.25;;;;;7.23;61.04;101198.47;146599;604;46010;-83
2021/12/18 08:39:24;;;;;;;;;53.75;41.00;;;;;7.23;59.75;101214.88;146597;636;47012;-81
2021/12/18 08:42:16;;;;;;;;;15.75;12.00;;;;;7.29;60.29;101201.47;146596;726;46010;-82
2021/12/18 08:45:09;;;;;;;;;25.75;24.00;;;;;7.37;60.04;101202.94;146592;613;46016;-75
2021/12/18 08:48:02;;;;;;;;;20.25;17.00;;;;;7.49;58.68;101200.34;146595;605;46020;-74
2021/12/18 08:50:54;;;;;;;;;16.50;13.25;;;;;7.62;59.11;101183.25;146597;569;46017;-73
2021/12/18 08:53:46;;;;;;;;;8.25;7.00;;;;;7.74;57.96;101174.56;146597;687;46020;-73
2021/12/18 08:56:39;;;;;;;;;7.00;6.00;;;;;7.81;57.45;101177.69;146597;613;46015;-73
2021/12/18 08:59:31;;;;;;;;;7.25;6.25;;;;;7.84;56.82;101141.75;146590;607;47010;-74
2021/12/18 09:02:23;;;;;;;;;9.25;8.00;;;;;7.90;55.51;101187.75;146596;588;47014;-75
2021/12/18 09:05:16;;;;;;;;;4.75;4.75;;;;;7.96;56.46;101156.31;146599;662;46010;-81
2021/12/18 09:08:08;;;;;;;;;5.50;4.50;;;;;7.95;55.47;101177.75;146599;569;46916;-77
2021/12/18 09:11:01;;;;;;;;;8.25;7.25;;;;;7.99;54.53;101161.69;146595;616;46020;-82
2021/12/18 09:13:53;;;;;;;;;6.75;6.50;;;;;8.02;54.95;101136.94;146596;577;46017;-79
2021/12/18 09:16:46;;;;;;;;;6.75;6.75;;;;;8.08;54.23;101167.47;146596;577;46020;-84
2021/12/18 09:19:38;;;;;;;;;7.50;6.00;;;;;8.17;54.11;101177.53;146594;584;46017;-79
2021/12/18 09:22:31;;;;;;;;;4.00;4.00;;;;;8.28;53.99;101156.78;146598;610;45020;-78
2021/12/18 09:25:23;;;;;;;;;3.00;3.00;;;;;8.40;52.21;101171.34;146601;605;46012;-83
2021/12/18 09:28:16;;;;;;;;;5.75;4.00;;;;;8.48;54.30;101211.53;146594;600;46011;-78
2021/12/18 09:31:09;;;;;;;;;4.00;4.00;;;;;8.43;54.89;101166.41;146598;575;47012;-76
2021/12/18 09:34:01;;;;;;;;;4.75;3.25;;;;;8.37;55.50;101173.69;146597;613;46021;-87
2021/12/18 09:36:53;;;;;;;;;5.50;5.50;;;;;8.25;57.79;101153.97;146595;571;46016;-83
2021/12/18 09:39:45;;;;;;;;;6.00;6.00;;;;;8.06;54.84;101169.03;146594;569;46020;-78
2021/12/18 09:42:38;;;;;;;;;7.25;5.75;;;;;8.02;56.54;101148.97;146596;604;46016;-77
2021/12/18 09:45:30;;;;;;;;;7.00;6.00;;;;;7.96;56.06;101195.03;146598;592;46012;-75
2021/12/18 09:48:24;;;;;;;;;6.50;5.50;;;;;7.95;55.32;101206.16;146597;572;45916;-72
2021/12/18 09:51:25;;;;;;;;;23.75;19.50;;;;;7.99;57.67;101172.00;146599;602;45021;-77
2021/12/18 09:54:18;;;;;;;;;7.25;6.25;;;;;7.88;55.24;101176.41;146597;593;46023;-72
2021/12/18 09:57:11;;;;;;;;;6.75;6.75;;;;;7.83;54.91;101194.19;146592;591;46021;-73
2021/12/18 10:00:04;;;;;;;;;7.00;7.00;;;;;7.87;54.62;101172.03;146595;577;46016;-74
2021/12/18 10:02:57;;;;;;;;;6.00;6.00;;;;;7.89;52.50;101191.12;146597;595;46012;-73
2021/12/18 10:05:49;;;;;;;;;7.75;5.25;;;;;6.96;53.52;101024.66;146596;584;46017;-75
2021/12/18 10:08:45;;;;;;;;;17.75;12.75;;;;;8.02;53.36;101172.22;146595;593;45020;-73
2021/12/18 10:11:37;;;;;;;;;46.75;36.25;;;;;8.08;53.51;101180.38;146595;576;46017;-72
2021/12/18 10:14:48;;;;;;;;;53.00;40.00;;;;;8.09;53.83;101177.88;146596;607;46021;-73
2021/12/18 10:17:43;;;;;;;;;43.50;35.25;;;;;8.10;53.23;101202.06;146598;627;46916;-71
2021/12/18 10:20:35;;;;;;;;;41.50;35.25;;;;;8.12;51.43;101186.66;146590;599;46021;-73
2021/12/18 10:23:30;;;;;;;;;10.25;8.50;;;;;8.12;51.53;101184.97;146598;600;46012;-73
2021/12/18 10:26:45;;;;;;;;;4.00;4.00;;;;;8.19;51.79;101179.41;146594;577;45021;-72
2021/12/18 10:29:40;;;;;;;;;8.25;8.00;;;;;8.25;51.72;101182.41;146596;573;46016;-72
2021/12/18 10:32:32;;;;;;;;;8.00;7.00;;;;;8.31;51.94;101194.84;146599;581;45020;-71
2021/12/18 10:35:25;;;;;;;;;7.00;5.00;;;;;8.31;51.30;101224.16;146598;630;46016;-72
2021/12/18 10:38:54;;;;;;;;;9.00;6.00;;;;;8.37;52.41;101215.03;146597;598;45020;-71
2021/12/18 10:41:46;;;;;;;;;6.50;6.50;;;;;8.40;52.30;101241.13;146596;590;46018;-72
2021/12/18 10:44:39;;;;;;;;;7.75;5.75;;;;;8.41;52.39;101256.75;146597;571;46020;-76
2021/12/18 10:48:04;;;;;;;;;6.25;5.25;;;;;8.39;52.42;101235.06;146598;616;46017;-72
2021/12/18 10:50:57;;;;;;;;;5.75;3.25;;;;;8.33;55.68;101245.84;146599;595;46020;-71
2021/12/18 10:53:49;;;;;;;;;10.25;6.75;;;;;8.24;55.15;101193.53;146594;661;46016;-73
2021/12/18 10:56:44;;;;;;;;;8.50;8.25;;;;;8.10;57.54;101217.56;146591;696;46020;-72
2021/12/18 10:59:38;;;;;;;;;6.00;6.00;;;;;8.00;55.96;101222.84;146595;616;46016;-72
2021/12/18 11:02:31;;;;;;;;;57.00;41.75;;;;;7.89;56.33;101216.06;146600;607;46010;-74
2021/12/18 11:05:24;;;;;;;;;8.50;6.25;;;;;7.82;55.87;101212.16;146596;617;46014;-73
2021/12/18 11:08:16;;;;;;;;;7.00;5.75;;;;;7.84;55.68;101213.16;146600;631;46020;-73
2021/12/18 11:14:24;;;;;;;;;5.50;4.00;;;;;7.85;56.02;101202.94;146598;574;46020;-74
2021/12/18 11:17:19;;;;;;;;;6.00;5.00;;;;;7.89;56.43;101208.31;146599;616;46015;-72
2021/12/18 11:20:13;;;;;;;;;6.50;4.00;;;;;7.93;54.55;101197.41;146598;581;47010;-74
2021/12/18 11:23:05;;;;;;;;;6.00;5.00;;;;;7.92;54.63;101213.69;146598;584;46016;-72
2021/12/18 11:25:59;;;;;;;;;5.00;5.00;;;;;7.89;55.28;101224.69;146590;591;46916;-72
2021/12/18 11:28:55;;;;;;;;;6.75;6.00;;;;;7.85;55.03;101208.09;146598;585;46012;-73
2021/12/18 11:31:50;;;;;;;;;6.75;6.00;;;;;7.81;53.91;101210.34;146595;574;46020;-72
2021/12/18 11:34:43;;;;;;;;;7.50;5.00;;;;;7.89;52.65;101235.03;146599;579;46012;-73
2021/12/18 11:37:43;;;;;;;;;6.25;6.00;;;;;7.94;53.43;101215.56;146599;662;46012;-72
2021/12/18 11:40:41;;;;;;;;;7.00;5.00;;;;;8.09;52.27;101208.88;146596;750;46017;-72
2021/12/18 11:43:46;;;;;;;;;10.25;6.00;;;;;8.22;52.18;101217.47;146597;624;47010;-73
2021/12/18 11:46:41;;;;;;;;;4.50;4.50;;;;;8.29;52.28;101205.09;146596;599;47012;-72
2021/12/18 11:49:53;;;;;;;;;16.75;14.25;;;;;8.32;51.38;101192.38;146597;606;46020;-72
2021/12/18 11:53:11;;;;;;;;;6.25;5.25;;;;;8.26;48.62;101217.81;146595;579;46914;-73
2021/12/18 11:56:05;;;;;;;;;4.00;4.00;;;;;8.28;47.77;101244.63;146591;586;47010;-73
2021/12/18 11:59:01;;;;;;;;;9.75;7.50;;;;;8.26;49.17;101220.37;146697;570;46012;-72
2021/12/18 12:01:54;;;;;;;;;7.25;5.25;;;;;8.33;49.05;101214.84;146621;667;45016;-71
2021/12/18 12:05:12;;;;;;;;;11.00;10.00;;;;;7.57;49.53;101081.41;146620;578;46020;-72
2021/12/18 12:08:42;;;;;;;;;8.00;7.50;;;;;8.38;50.90;101255.59;146612;613;46012;-73
2021/12/18 12:11:34;;;;;;;;;16.25;13.50;;;;;8.30;51.56;101262.81;146625;661;46010;-72
2021/12/18 12:14:31;;;;;;;;;5.00;4.50;;;;;8.18;51.73;101274.91;146614;583;46017;-72
2021/12/18 12:17:27;;;;;;;;;5.75;5.00;;;;;8.09;56.55;101277.72;146623;607;46020;-73
2021/12/18 12:20:39;;;;;;;;;8.25;7.25;;;;;7.94;56.44;101282.72;146617;643;46017;-72
2021/12/18 12:23:31;;;;;;;;;4.75;3.00;;;;;7.62;58.75;101293.34;146625;581;46010;-70
2021/12/18 12:26:27;;;;;;;;;8.25;8.00;;;;;7.51;60.18;101279.66;146618;577;46017;-75
2021/12/18 12:29:21;;;;;;;;;9.00;7.25;;;;;7.48;59.58;101278.56;146624;581;46020;-72
2021/12/18 12:32:15;;;;;;;;;10.00;10.00;;;;;7.43;60.89;101285.06;146619;591;46016;-72
2021/12/18 12:35:17;;;;;;;;;10.25;9.25;;;;;7.44;60.61;101328.13;146617;581;46011;-73
2021/12/18 12:38:26;;;;;;;;;2.00;2.00;;;;;7.18;61.24;101297.03;146617;582;46016;-73
2021/12/18 12:41:49;;;;;;;;;3.25;3.25;;;;;6.97;61.97;101303.19;146622;637;47010;-72
2021/12/18 12:44:52;;;;;;;;;3.00;2.00;;;;;6.81;63.65;101297.66;146618;669;46018;-72
2021/12/18 12:47:56;;;;;;;;;3.00;2.00;;;;;6.56;66.74;101287.19;146620;600;46020;-73
2021/12/18 12:51:04;;;;;;;;;2.00;2.00;;;;;6.41;64.66;101277.50;146619;684;46012;-71
2021/12/18 12:53:57;;;;;;;;;9.75;8.75;;;;;6.35;67.19;101279.59;146624;582;46020;-71
2021/12/18 12:56:49;;;;;;;;;11.00;6.00;;;;;6.34;66.68;101275.25;146619;599;46013;-73
2021/12/18 12:59:42;;;;;;;;;7.00;5.00;;;;;6.20;66.84;101297.38;146622;614;46010;-73
2021/12/18 13:02:56;;;;;;;;;6.50;4.50;;;;;6.01;67.40;101300.19;146616;575;46016;-73
2021/12/18 13:05:58;;;;;;;;;2.75;1.75;;;;;5.76;69.36;101281.88;146621;630;46010;-73
2021/12/18 13:08:51;;;;;;;;;2.00;2.00;;;;;5.60;67.02;101278.84;146619;581;46916;-73
2021/12/18 13:11:43;;;;;;;;;5.50;4.00;;;;;5.51;68.83;101308.97;146620;591;46021;-73
2021/12/18 13:14:46;;;;;;;;;9.00;6.75;;;;;5.35;69.24;101304.25;146621;696;46012;-73
2021/12/18 13:17:38;;;;;;;;;6.25;6.25;;;;;5.19;71.55;101303.81;146619;588;46020;-73
2021/12/18 13:20:31;;;;;;;;;6.00;5.00;;;;;5.16;69.48;101308.69;146620;569;46014;-73
2021/12/18 13:23:23;;;;;;;;;4.75;4.75;;;;;5.13;68.45;101298.16;146618;693;47010;-73
2021/12/18 13:26:28;;;;;;;;;39.25;30.25;;;;;5.04;68.68;101304.31;146615;578;46017;-72
2021/12/18 13:29:25;;;;;;;;;79.50;53.50;;;;;5.02;69.09;101307.56;146615;593;46020;-72
2021/12/18 13:32:17;;;;;;;;;58.50;45.25;;;;;5.05;69.78;101302.69;146612;591;46016;-71
2021/12/18 13:35:20;;;;;;;;;20.75;14.25;;;;;5.17;68.59;101295.06;146615;571;46010;-71
2021/12/18 13:38:15;;;;;;;;;7.75;5.75;;;;;5.23;72.88;101285.28;146612;580;46016;-73
2021/12/18 13:41:13;;;;;;;;;4.25;3.00;;;;;5.20;72.45;101274.72;146622;564;46021;-74
2021/12/18 13:44:06;;;;;;;;;7.00;4.75;;;;;5.24;72.55;101261.38;146618;563;46016;-74
2021/12/18 13:46:58;;;;;;;;;6.50;3.75;;;;;5.28;70.43;101253.13;146624;598;46010;-73
2021/12/18 13:49:51;;;;;;;;;4.25;4.25;;;;;5.35;70.92;101265.69;146618;615;46014;-74
2021/12/18 13:52:56;;;;;;;;;6.00;5.00;;;;;5.51;69.96;101289.31;146624;586;46020;-71
2021/12/18 13:55:57;;;;;;;;;8.75;7.75;;;;;5.61;69.17;101295.16;146616;564;46016;-74
2021/12/18 13:58:49;;;;;;;;;10.00;8.75;;;;;5.71;69.26;101324.34;146621;569;46020;-73
2021/12/18 14:01:42;;;;;;;;;10.75;8.50;;;;;5.77;68.19;101331.66;146617;603;46016;-73
2021/12/18 14:04:34;;;;;;;;;10.75;7.75;;;;;5.83;68.25;101334.72;146622;583;46020;-71
2021/12/18 14:07:26;;;;;;;;;5.75;4.75;;;;;5.89;68.22;101350.66;146617;597;46916;-70
2021/12/18 14:10:19;;;;;;;;;14.00;13.25;;;;;5.95;67.77;101397.53;146622;575;46021;-73
2021/12/18 14:13:11;;;;;;;;;14.50;13.00;;;;;5.98;71.04;101402.91;146613;593;46915;-73